createdAt,value
2023-03-05T00:00:29.296Z,99.99
2023-03-05T00:01:29.898Z,99.99
2023-03-05T00:02:30.400Z,99.99
2023-03-05T00:03:30.712Z,99.99
2023-03-05T00:04:31.836Z,99.99
2023-03-05T00:05:32.794Z,99.99
2023-03-05T00:06:32.991Z,99.99
2023-03-05T00:07:33.965Z,99.99
2023-03-05T00:08:34.202Z,99.99
2023-03-05T00:09:35.887Z,99.99
2023-03-05T00:10:35.009Z,99.99
2023-03-05T00:11:35.980Z,99.99
2023-03-05T00:12:36.172Z,99.99
2023-03-05T00:13:37.392Z,99.99
2023-03-05T00:14:37.874Z,99.99
2023-03-05T00:15:38.863Z,99.99
2023-03-05T00:16:39.539Z,99.99
2023-03-05T00:17:40.506Z,99.99
2023-03-05T00:18:41.133Z,99.99
2023-03-05T00:19:42.507Z,99.99
2023-03-05T00:20:43.522Z,99.99
2023-03-05T00:21:43.600Z,99.99
2023-03-05T00:22:44.870Z,99.99
2023-03-05T00:23:45.527Z,99.99
2023-03-05T00:24:46.100Z,99.99
2023-03-05T00:25:46.754Z,99.99
2023-03-05T00:26:47.005Z,99.99
2023-03-05T00:27:47.527Z,99.99
2023-03-05T00:28:48.514Z,99.99
2023-03-05T00:29:48.907Z,99.99
2023-03-05T00:30:49.029Z,99.99
2023-03-05T00:31:49.424Z,99.99
2023-03-05T00:32:49.471Z,99.99
2023-03-05T00:33:50.684Z,99.99
2023-03-05T00:34:50.613Z,99.99
2023-03-05T00:35:51.724Z,99.99
2023-03-05T00:36:51.992Z,99.99
2023-03-05T00:37:52.864Z,99.99
2023-03-05T00:38:53.096Z,99.99
2023-03-05T00:39:53.637Z,99.99
2023-03-05T00:40:53.851Z,99.99
2023-03-05T00:41:54.487Z,99.99
2023-03-05T00:42:54.686Z,99.99
2023-03-05T00:43:54.635Z,99.99
2023-03-05T00:44:55.626Z,99.99
2023-03-05T00:45:55.545Z,99.99
2023-03-05T00:46:57.022Z,99.99
2023-03-05T00:47:57.677Z,99.99
2023-03-05T00:48:57.895Z,99.99
2023-03-05T00:49:58.550Z,99.99
2023-03-05T00:50:58.888Z,99.99
2023-03-05T00:51:59.526Z,99.99
2023-03-05T00:53:00.042Z,99.99
2023-03-05T00:54:00.724Z,99.99
2023-03-05T00:55:00.981Z,99.99
2023-03-05T00:56:01.185Z,99.99
2023-03-05T00:57:02.129Z,99.99
2023-03-05T00:58:03.062Z,99.99
2023-03-05T00:59:03.608Z,99.99
2023-03-05T01:00:04.309Z,99.99
2023-03-05T01:01:05.029Z,99.99
2023-03-05T01:02:06.262Z,99.99
2023-03-05T01:03:06.631Z,99.99
2023-03-05T01:04:07.145Z,99.99
2023-03-05T01:05:07.523Z,99.99
2023-03-05T01:06:08.371Z,99.99
2023-03-05T01:07:08.311Z,99.99
2023-03-05T01:08:08.878Z,99.99
2023-03-05T01:09:09.834Z,99.99
2023-03-05T01:10:10.377Z,99.99
2023-03-05T01:11:11.423Z,99.99
2023-03-05T01:12:12.098Z,99.99
2023-03-05T01:13:12.330Z,99.99
2023-03-05T01:14:13.560Z,99.99
2023-03-05T01:15:14.058Z,99.99
2023-03-05T01:16:14.899Z,99.99
2023-03-05T01:17:15.314Z,99.99
2023-03-05T01:18:15.231Z,99.99
2023-03-05T01:19:15.888Z,99.99
2023-03-05T01:20:16.636Z,99.99
2023-03-05T01:21:17.637Z,99.99
2023-03-05T01:22:17.899Z,99.99
2023-03-05T01:23:18.404Z,99.99
2023-03-05T01:24:19.466Z,99.99
2023-03-05T01:25:20.052Z,99.99
2023-03-05T01:26:19.992Z,99.99
2023-03-05T01:27:20.474Z,99.99
2023-03-05T01:28:21.376Z,99.99
2023-03-05T01:29:22.342Z,99.99
2023-03-05T01:30:22.552Z,99.99
2023-03-05T01:31:23.930Z,99.99
2023-03-05T01:32:24.415Z,99.99
2023-03-05T01:33:25.044Z,99.99
2023-03-05T01:34:24.967Z,99.99
2023-03-05T01:35:26.411Z,99.99
2023-03-05T01:36:26.218Z,99.99
2023-03-05T01:37:27.173Z,99.99
2023-03-05T01:38:27.885Z,99.99
2023-03-05T01:39:28.251Z,99.99
2023-03-05T01:40:28.699Z,99.99
2023-03-05T01:41:29.433Z,99.99
2023-03-05T01:42:30.376Z,99.99
2023-03-05T01:43:31.928Z,99.99
2023-03-05T01:44:32.594Z,99.99
2023-03-05T01:45:32.929Z,99.99
2023-03-05T01:46:33.031Z,99.99
2023-03-05T01:47:34.231Z,99.99
2023-03-05T01:48:35.165Z,99.99
2023-03-05T01:49:35.869Z,99.99
2023-03-05T01:50:36.826Z,99.99
2023-03-05T01:51:37.459Z,99.99
2023-03-05T01:52:38.405Z,99.99
2023-03-05T01:53:39.344Z,99.99
2023-03-05T01:54:40.289Z,99.99
2023-03-05T01:55:40.567Z,99.99
2023-03-05T01:56:41.198Z,99.99
2023-03-05T01:57:41.416Z,99.99
2023-03-05T01:58:41.340Z,99.99
2023-03-05T01:59:42.265Z,99.99
2023-03-05T02:00:42.989Z,99.99
2023-03-05T02:01:43.724Z,99.99
2023-03-05T02:02:43.934Z,99.99
2023-03-05T02:03:44.219Z,99.99
2023-03-05T02:04:45.019Z,99.99
2023-03-05T02:05:45.651Z,99.99
2023-03-05T02:06:46.565Z,99.99
2023-03-05T02:07:46.764Z,99.99
2023-03-05T02:08:48.008Z,99.99
2023-03-05T02:09:48.254Z,99.99
2023-03-05T02:10:48.532Z,99.99
2023-03-05T02:11:49.154Z,99.99
2023-03-05T02:12:49.371Z,99.99
2023-03-05T02:13:49.762Z,99.99
2023-03-05T02:14:50.398Z,99.99
2023-03-05T02:15:51.024Z,99.99
2023-03-05T02:16:51.508Z,99.99
2023-03-05T02:17:52.679Z,99.99
2023-03-05T02:18:53.636Z,99.99
2023-03-05T02:19:54.578Z,99.99
2023-03-05T02:20:54.804Z,99.99
2023-03-05T02:21:55.278Z,99.99
2023-03-05T02:22:56.497Z,99.99
2023-03-05T02:23:57.421Z,99.99
2023-03-05T02:24:58.126Z,99.99
2023-03-05T02:25:58.379Z,99.99
2023-03-05T02:26:59.323Z,99.99
2023-03-05T02:27:59.824Z,99.99
2023-03-05T02:29:00.750Z,99.99
2023-03-05T02:30:00.970Z,99.99
2023-03-05T02:31:01.919Z,99.99
2023-03-05T02:32:02.626Z,99.99
2023-03-05T02:33:03.183Z,99.99
2023-03-05T02:34:03.394Z,99.99
2023-03-05T02:35:04.053Z,99.99
2023-03-05T02:36:05.356Z,99.99
2023-03-05T02:37:05.860Z,99.99
2023-03-05T02:38:06.236Z,99.99
2023-03-05T02:39:07.481Z,99.99
2023-03-05T02:40:07.865Z,99.99
2023-03-05T02:41:08.543Z,99.99
2023-03-05T02:42:08.994Z,99.99
2023-03-05T02:43:09.943Z,99.99
2023-03-05T02:44:10.476Z,99.99
2023-03-05T02:45:10.401Z,99.99
2023-03-05T02:46:11.719Z,99.99
2023-03-05T02:47:12.169Z,99.99
2023-03-05T02:48:12.098Z,99.99
2023-03-05T02:49:13.466Z,99.99
2023-03-05T02:50:13.666Z,99.99
2023-03-05T02:51:13.628Z,99.99
2023-03-05T02:52:14.396Z,99.99
2023-03-05T02:53:15.621Z,99.99
2023-03-05T02:54:16.362Z,99.99
2023-03-05T02:55:17.040Z,99.99
2023-03-05T02:56:17.608Z,99.99
2023-03-05T02:57:17.834Z,99.99
2023-03-05T02:58:18.753Z,99.99
2023-03-05T02:59:18.962Z,99.99
2023-03-05T03:00:19.083Z,99.99
2023-03-05T03:01:20.083Z,99.99
2023-03-05T03:02:20.395Z,99.99
2023-03-05T03:03:21.047Z,99.99
2023-03-05T03:04:21.536Z,99.99
2023-03-05T03:05:21.760Z,99.99
2023-03-05T03:06:21.690Z,99.99
2023-03-05T03:07:22.606Z,99.99
2023-03-05T03:08:23.096Z,99.99
2023-03-05T03:09:23.672Z,99.99
2023-03-05T03:10:24.195Z,99.99
2023-03-05T03:11:24.748Z,99.99
2023-03-05T03:12:25.103Z,99.99
2023-03-05T03:13:26.026Z,99.99
2023-03-05T03:14:26.674Z,99.99
2023-03-05T03:15:27.387Z,99.99
2023-03-05T03:16:28.079Z,99.99
2023-03-05T03:17:28.177Z,99.99
2023-03-05T03:18:29.401Z,99.99
2023-03-05T03:19:29.602Z,99.99
2023-03-05T03:20:30.262Z,99.99
2023-03-05T03:21:31.466Z,99.99
2023-03-05T03:22:31.922Z,99.99
2023-03-05T03:23:32.860Z,99.99
2023-03-05T03:24:34.096Z,99.99
2023-03-05T03:25:34.768Z,99.99
2023-03-05T03:26:35.350Z,99.99
2023-03-05T03:27:36.002Z,99.99
2023-03-05T03:28:36.201Z,99.99
2023-03-05T03:29:36.708Z,99.99
2023-03-05T03:30:36.998Z,99.99
2023-03-05T03:31:38.300Z,99.99
2023-03-05T03:32:39.114Z,99.99
2023-03-05T03:33:39.325Z,99.99
2023-03-05T03:34:40.286Z,99.99
2023-03-05T03:35:40.580Z,99.99
2023-03-05T03:36:41.106Z,99.99
2023-03-05T03:37:41.595Z,99.99
2023-03-05T03:38:41.814Z,99.99
2023-03-05T03:39:42.366Z,99.99
2023-03-05T03:40:42.608Z,99.99
2023-03-05T03:41:43.150Z,99.99
2023-03-05T03:42:43.560Z,99.99
2023-03-05T03:43:44.981Z,99.99
2023-03-05T03:44:45.230Z,99.99
2023-03-05T03:45:46.475Z,99.99
2023-03-05T03:46:46.326Z,99.99
2023-03-05T03:47:46.538Z,99.99
2023-03-05T03:48:46.785Z,99.99
2023-03-05T03:49:47.728Z,99.99
2023-03-05T03:50:48.230Z,99.99
2023-03-05T03:51:48.460Z,99.99
2023-03-05T03:52:49.218Z,99.99
2023-03-05T03:53:50.170Z,99.99
2023-03-05T03:54:50.415Z,99.99
2023-03-05T03:55:50.650Z,99.99
2023-03-05T03:56:51.280Z,99.99
2023-03-05T03:57:51.819Z,99.99
2023-03-05T03:58:52.348Z,99.99
2023-03-05T03:59:52.562Z,99.99
2023-03-05T04:00:52.761Z,99.99
2023-03-05T04:01:53.418Z,99.99
2023-03-05T04:02:54.243Z,99.99
2023-03-05T04:03:54.304Z,99.99
2023-03-05T04:04:54.650Z,99.99
2023-03-05T04:05:55.578Z,99.99
2023-03-05T04:06:55.523Z,99.99
2023-03-05T04:07:56.448Z,99.99
2023-03-05T04:08:56.380Z,99.99
2023-03-05T04:09:57.699Z,99.99
2023-03-05T04:10:58.224Z,99.99
2023-03-05T04:11:58.788Z,99.99
2023-03-05T04:12:59.136Z,99.99
2023-03-05T04:13:59.801Z,99.99
2023-03-05T04:15:00.030Z,99.99
2023-03-05T04:16:00.755Z,99.99
2023-03-05T04:17:00.946Z,99.99
2023-03-05T04:18:01.172Z,99.99
2023-03-05T04:19:01.427Z,99.99
2023-03-05T04:20:02.328Z,99.99
2023-03-05T04:21:03.290Z,99.99
2023-03-05T04:22:03.998Z,99.99
2023-03-05T04:23:04.570Z,99.99
2023-03-05T04:24:04.499Z,99.99
2023-03-05T04:25:05.022Z,99.99
2023-03-05T04:26:05.967Z,99.99
2023-03-05T04:27:06.250Z,99.99
2023-03-05T04:28:07.187Z,99.99
2023-03-05T04:29:07.558Z,99.99
2023-03-05T04:30:07.903Z,99.99
2023-03-05T04:31:08.937Z,99.99
2023-03-05T04:32:09.322Z,99.99
2023-03-05T04:33:09.309Z,99.99
2023-03-05T04:34:10.231Z,99.99
2023-03-05T04:35:10.763Z,99.99
2023-03-05T04:36:11.085Z,99.99
2023-03-05T04:37:11.589Z,99.99
2023-03-05T04:38:12.240Z,99.99
2023-03-05T04:39:13.460Z,99.99
2023-03-05T04:40:13.986Z,99.99
2023-03-05T04:41:14.253Z,99.99
2023-03-05T04:42:14.529Z,99.99
2023-03-05T04:43:14.682Z,99.99
2023-03-05T04:44:15.898Z,99.99
2023-03-05T04:45:15.838Z,99.99
2023-03-05T04:46:16.394Z,99.99
2023-03-05T04:47:17.126Z,99.99
2023-03-05T04:48:17.517Z,99.99
2023-03-05T04:49:18.204Z,99.99
2023-03-05T04:50:18.450Z,99.99
2023-03-05T04:51:19.094Z,99.99
2023-03-05T04:52:19.287Z,99.99
2023-03-05T04:53:19.723Z,99.99
2023-03-05T04:54:20.659Z,99.99
2023-03-05T04:55:20.913Z,99.99
2023-03-05T04:56:21.851Z,99.99
2023-03-05T04:57:23.797Z,99.99
2023-03-05T04:58:22.647Z,99.99
2023-03-05T04:59:23.336Z,99.99
2023-03-05T05:00:24.028Z,99.99
2023-03-05T05:01:24.656Z,99.99
2023-03-05T05:02:25.085Z,99.99
2023-03-05T05:03:25.449Z,99.99
2023-03-05T05:04:26.382Z,99.99
2023-03-05T05:05:26.345Z,99.99
2023-03-05T05:06:27.256Z,99.99
2023-03-05T05:07:28.178Z,99.99
2023-03-05T05:08:29.544Z,99.99
2023-03-05T05:09:30.487Z,99.99
2023-03-05T05:10:31.050Z,99.99
2023-03-05T05:11:31.575Z,99.99
2023-03-05T05:12:32.139Z,99.99
2023-03-05T05:13:32.779Z,99.99
2023-03-05T05:14:32.984Z,99.99
2023-03-05T05:15:33.613Z,99.99
2023-03-05T05:16:33.911Z,99.99
2023-03-05T05:17:34.993Z,99.99
2023-03-05T05:18:34.925Z,99.99
2023-03-05T05:19:35.585Z,99.99
2023-03-05T05:20:36.434Z,99.99
2023-03-05T05:21:36.629Z,99.99
2023-03-05T05:22:36.834Z,99.99
2023-03-05T05:23:37.562Z,99.99
2023-03-05T05:24:37.803Z,99.99
2023-03-05T05:25:38.318Z,99.99
2023-03-05T05:26:39.267Z,99.99
2023-03-05T05:27:39.813Z,99.99
2023-03-05T05:28:39.730Z,99.99
2023-03-05T05:29:40.369Z,99.99
2023-03-05T05:30:41.571Z,99.99
2023-03-05T05:31:42.401Z,99.99
2023-03-05T05:32:42.767Z,99.99
2023-03-05T05:33:43.309Z,99.99
2023-03-05T05:34:43.306Z,99.99
2023-03-05T05:35:43.975Z,99.99
2023-03-05T05:36:44.047Z,99.99
2023-03-05T05:37:44.674Z,99.99
2023-03-05T05:38:45.958Z,99.99
2023-03-05T05:39:46.370Z,99.99
2023-03-05T05:40:46.608Z,99.99
2023-03-05T05:41:46.551Z,99.99
2023-03-05T05:42:46.826Z,99.99
2023-03-05T05:43:47.868Z,99.99
2023-03-05T05:44:48.504Z,99.99
2023-03-05T05:45:48.949Z,99.99
2023-03-05T05:46:49.594Z,99.99
2023-03-05T05:47:50.711Z,99.99
2023-03-05T05:48:51.354Z,99.99
2023-03-05T05:49:52.598Z,99.99
2023-03-05T05:50:53.556Z,99.99
2023-03-05T05:51:53.893Z,99.99
2023-03-05T05:52:54.560Z,99.99
2023-03-05T05:53:55.169Z,99.99
2023-03-05T05:54:55.373Z,99.99
2023-03-05T05:55:55.627Z,99.99
2023-03-05T05:56:56.552Z,99.99
2023-03-05T05:57:57.105Z,99.99
2023-03-05T05:58:57.310Z,99.99
2023-03-05T05:59:57.519Z,99.99
2023-03-05T06:00:57.459Z,99.99
2023-03-05T06:01:58.794Z,99.99
2023-03-05T06:02:59.341Z,99.99
2023-03-05T06:03:59.830Z,99.99
2023-03-05T06:05:03.597Z,99.99
2023-03-05T06:06:01.542Z,99.99
2023-03-05T06:07:02.503Z,99.99
2023-03-05T06:08:03.441Z,99.99
2023-03-05T06:09:03.959Z,99.99
2023-03-05T06:10:04.379Z,99.99
2023-03-05T06:11:05.368Z,99.99
2023-03-05T06:12:06.340Z,99.99
2023-03-05T06:13:06.917Z,99.99
2023-03-05T06:14:07.998Z,99.99
2023-03-05T06:15:08.393Z,99.99
2023-03-05T06:16:09.081Z,99.99
2023-03-05T06:17:12.831Z,99.99
2023-03-05T06:18:10.856Z,99.99
2023-03-05T06:19:11.803Z,99.99
2023-03-05T06:20:12.751Z,99.99
2023-03-05T06:21:13.071Z,99.99
2023-03-05T06:22:13.744Z,99.99
2023-03-05T06:23:14.958Z,99.99
2023-03-05T06:24:15.116Z,99.99
2023-03-05T06:25:16.152Z,99.99
2023-03-05T06:26:17.377Z,99.99
2023-03-05T06:27:18.042Z,99.99
2023-03-05T06:28:18.609Z,99.99
2023-03-05T06:29:19.554Z,99.99
2023-03-05T06:30:19.501Z,99.99
2023-03-05T06:31:19.833Z,99.99
2023-03-05T06:32:20.753Z,99.99
2023-03-05T06:33:20.933Z,99.99
2023-03-05T06:34:21.060Z,99.99
2023-03-05T06:35:22.060Z,99.99
2023-03-05T06:36:22.424Z,99.99
2023-03-05T06:37:22.630Z,99.99
2023-03-05T06:38:23.318Z,99.99
2023-03-05T06:39:23.954Z,99.99
2023-03-05T06:40:24.961Z,99.99
2023-03-05T06:41:25.894Z,99.99
2023-03-05T06:42:25.977Z,99.99
2023-03-05T06:43:26.571Z,99.99
2023-03-05T06:44:26.609Z,99.99
2023-03-05T06:45:27.701Z,99.99
2023-03-05T06:46:28.027Z,99.99
2023-03-05T06:47:28.686Z,99.99
2023-03-05T06:48:29.174Z,99.99
2023-03-05T06:49:29.393Z,99.99
2023-03-05T06:50:30.309Z,99.99
2023-03-05T06:51:30.807Z,99.99
2023-03-05T06:52:31.005Z,99.99
2023-03-05T06:53:31.635Z,99.99
2023-03-05T06:54:31.975Z,99.99
2023-03-05T06:55:33.060Z,99.99
2023-03-05T06:56:33.597Z,99.99
2023-03-05T06:57:34.555Z,99.99
2023-03-05T06:58:35.107Z,99.99
2023-03-05T06:59:35.740Z,99.99
2023-03-05T07:00:36.435Z,99.99
2023-03-05T07:01:36.564Z,99.99
2023-03-05T07:02:36.793Z,99.99
2023-03-05T07:03:37.305Z,99.99
2023-03-05T07:04:38.352Z,99.99
2023-03-05T07:05:39.699Z,99.99
2023-03-05T07:06:39.605Z,99.99
2023-03-05T07:07:40.523Z,99.99
2023-03-05T07:08:40.770Z,99.99
2023-03-05T07:09:41.445Z,99.99
2023-03-05T07:10:41.800Z,99.99
2023-03-05T07:11:42.763Z,99.99
2023-03-05T07:12:43.680Z,99.99
2023-03-05T07:13:44.268Z,99.99
2023-03-05T07:14:44.641Z,99.99
2023-03-05T07:15:45.400Z,99.99
2023-03-05T07:16:45.760Z,99.99
2023-03-05T07:17:47.001Z,99.99
2023-03-05T07:18:47.238Z,99.99
2023-03-05T07:19:47.871Z,99.99
2023-03-05T07:20:48.380Z,99.99
2023-03-05T07:21:48.598Z,99.99
2023-03-05T07:22:49.533Z,99.99
2023-03-05T07:23:49.538Z,99.99
2023-03-05T07:24:50.043Z,99.99
2023-03-05T07:25:50.781Z,99.99
2023-03-05T07:26:54.100Z,99.99
2023-03-05T07:27:51.362Z,99.99
2023-03-05T07:28:51.637Z,99.99
2023-03-05T07:29:52.555Z,99.99
2023-03-05T07:30:53.556Z,99.99
2023-03-05T07:31:54.741Z,99.99
2023-03-05T07:32:54.576Z,99.99
2023-03-05T07:33:55.223Z,99.99
2023-03-05T07:34:56.288Z,99.99
2023-03-05T07:35:56.894Z,99.99
2023-03-05T07:36:57.962Z,99.99
2023-03-05T07:37:58.481Z,99.99
2023-03-05T07:38:59.173Z,99.99
2023-03-05T07:40:00.159Z,99.99
2023-03-05T07:41:00.822Z,99.99
2023-03-05T07:42:01.865Z,99.99
2023-03-05T07:43:02.344Z,99.99
2023-03-05T07:44:02.914Z,99.99
2023-03-05T07:45:03.973Z,99.99
2023-03-05T07:46:04.295Z,99.99
2023-03-05T07:47:04.709Z,99.99
2023-03-05T07:48:05.154Z,99.99
2023-03-05T07:49:05.694Z,99.99
2023-03-05T07:50:05.914Z,99.99
2023-03-05T07:51:05.833Z,99.99
2023-03-05T07:52:06.348Z,99.99
2023-03-05T07:53:06.613Z,99.99
2023-03-05T07:54:07.263Z,99.99
2023-03-05T07:55:07.878Z,99.99
2023-03-05T07:56:08.385Z,99.99
2023-03-05T07:57:09.312Z,99.99
2023-03-05T07:58:10.282Z,99.99
2023-03-05T07:59:10.852Z,99.99
2023-03-05T08:00:11.092Z,99.99
2023-03-05T08:01:13.330Z,99.99
2023-03-05T08:02:12.697Z,99.99
2023-03-05T08:03:12.491Z,99.99
2023-03-05T08:04:14.024Z,99.99
2023-03-05T08:05:14.020Z,99.99
2023-03-05T08:06:14.525Z,99.99
2023-03-05T08:07:15.484Z,99.99
2023-03-05T08:08:15.905Z,99.99
2023-03-05T08:09:15.573Z,99.99
2023-03-05T08:10:16.217Z,99.99
2023-03-05T08:11:16.735Z,99.99
2023-03-05T08:12:17.005Z,99.99
2023-03-05T08:13:17.262Z,99.99
2023-03-05T08:14:17.945Z,99.99
2023-03-05T08:15:17.979Z,99.99
2023-03-05T08:16:18.363Z,99.99
2023-03-05T08:17:18.642Z,99.99
2023-03-05T08:18:18.849Z,99.99
2023-03-05T08:19:19.064Z,99.99
2023-03-05T08:20:19.990Z,99.99
2023-03-05T08:21:20.615Z,99.99
2023-03-05T08:22:21.626Z,99.99
2023-03-05T08:23:21.528Z,99.99
2023-03-05T08:24:22.737Z,99.99
2023-03-05T08:25:23.027Z,99.99
2023-03-05T08:26:23.234Z,99.99
2023-03-05T08:27:24.196Z,99.99
2023-03-05T08:28:25.163Z,99.99
2023-03-05T08:29:25.598Z,99.99
2023-03-05T08:30:26.243Z,99.99
2023-03-05T08:31:27.339Z,99.99
2023-03-05T08:32:28.278Z,99.99
2023-03-05T08:33:31.209Z,99.99
2023-03-05T08:34:30.095Z,99.99
2023-03-05T08:35:30.598Z,99.99
2023-03-05T08:36:31.324Z,99.99
2023-03-05T08:37:31.247Z,99.99
2023-03-05T08:38:31.893Z,99.99
2023-03-05T08:39:32.940Z,99.99
2023-03-05T08:40:33.586Z,99.99
2023-03-05T08:41:34.129Z,99.99
2023-03-05T08:42:34.341Z,99.99
2023-03-05T08:43:35.290Z,99.99
2023-03-05T08:44:35.557Z,99.99
2023-03-05T08:45:36.032Z,99.99
2023-03-05T08:46:37.078Z,99.99
2023-03-05T08:47:37.719Z,99.99
2023-03-05T08:48:38.647Z,99.99
2023-03-05T08:49:38.888Z,99.99
2023-03-05T08:50:39.123Z,99.99
2023-03-05T08:51:39.781Z,99.99
2023-03-05T08:52:40.990Z,99.99
2023-03-05T08:53:40.939Z,99.99
2023-03-05T08:54:41.440Z,99.99
2023-03-05T08:55:44.083Z,99.99
2023-03-05T08:56:43.138Z,99.99
2023-03-05T08:57:43.364Z,99.99
2023-03-05T08:58:43.627Z,99.99
2023-03-05T08:59:44.256Z,99.99
2023-03-05T09:00:45.193Z,99.99
2023-03-05T09:01:45.548Z,99.99
2023-03-05T09:02:46.179Z,99.99
2023-03-05T09:03:46.864Z,99.99
2023-03-05T09:04:47.568Z,99.99
2023-03-05T09:05:48.292Z,99.99
2023-03-05T09:06:48.992Z,99.99
2023-03-05T09:07:49.641Z,99.99
2023-03-05T09:08:50.282Z,99.96
2023-03-05T09:09:51.508Z,99.39
2023-03-05T09:10:51.756Z,97.59
2023-03-05T09:11:51.973Z,98.63
2023-03-05T09:12:52.568Z,99.96
2023-03-05T09:13:53.267Z,99.99
2023-03-05T09:14:53.554Z,99.99
2023-03-05T09:15:54.222Z,99.99
2023-03-05T09:16:54.686Z,99.99
2023-03-05T09:17:55.209Z,99.99
2023-03-05T09:18:55.864Z,98.82
2023-03-05T09:19:56.201Z,98.54
2023-03-05T09:20:57.149Z,98.54
2023-03-05T09:22:01.420Z,98.35
2023-03-05T09:22:58.897Z,98.44
2023-03-05T09:23:58.856Z,98.44
2023-03-05T09:24:59.549Z,97.97
2023-03-05T09:26:00.583Z,97.88
2023-03-05T09:27:01.508Z,97.31
2023-03-05T09:28:02.468Z,96.83
2023-03-05T09:29:02.726Z,95.07
2023-03-05T09:30:03.316Z,95.17
2023-03-05T09:31:03.965Z,95.93
2023-03-05T09:32:04.790Z,95.74
2023-03-05T09:33:04.830Z,94.42
2023-03-05T09:34:06.068Z,93.84
2023-03-05T09:35:06.708Z,93.84
2023-03-05T09:36:06.955Z,93.84
2023-03-05T09:37:07.891Z,92.99
2023-03-05T09:38:08.830Z,91.56
2023-03-05T09:39:08.755Z,91.94
2023-03-05T09:40:10.005Z,92.33
2023-03-05T09:41:10.547Z,91.66
2023-03-05T09:42:10.481Z,90.62
2023-03-05T09:43:11.422Z,91
2023-03-05T09:44:12.421Z,90.52
2023-03-05T09:45:12.981Z,90.33
2023-03-05T09:46:13.532Z,90.62
2023-03-05T09:47:14.732Z,90.05
2023-03-05T09:48:14.770Z,90.43
2023-03-05T09:49:14.989Z,90.33
2023-03-05T09:50:15.917Z,91.38
2023-03-05T09:51:16.238Z,91.09
2023-03-05T09:52:17.159Z,90.71
2023-03-05T09:53:17.525Z,91.71
2023-03-05T09:54:17.917Z,91.75
2023-03-05T09:55:19.228Z,91.56
2023-03-05T09:56:20.296Z,91.66
2023-03-05T09:57:20.514Z,91.75
2023-03-05T09:58:21.783Z,91.38
2023-03-05T09:59:21.744Z,91.66
2023-03-05T10:00:22.302Z,90.71
2023-03-05T10:01:22.707Z,91.28
2023-03-05T10:02:23.202Z,91.19
2023-03-05T10:03:23.692Z,91.85
2023-03-05T10:04:24.396Z,92.8
2023-03-05T10:05:24.714Z,93.65
2023-03-05T10:06:25.437Z,94.23
2023-03-05T10:07:25.967Z,93.75
2023-03-05T10:08:26.906Z,94.03
2023-03-05T10:09:27.410Z,93.65
2023-03-05T10:10:28.046Z,93.46
2023-03-05T10:11:28.695Z,93.37
2023-03-05T10:12:28.911Z,93.08
2023-03-05T10:13:30.249Z,92.8
2023-03-05T10:14:31.231Z,92.14
2023-03-05T10:15:32.132Z,92.71
2023-03-05T10:16:32.135Z,92.33
2023-03-05T10:17:32.443Z,91.38
2023-03-05T10:18:33.368Z,91.19
2023-03-05T10:19:34.282Z,90.43
2023-03-05T10:20:35.220Z,89.67
2023-03-05T10:21:35.163Z,90.52
2023-03-05T10:22:36.408Z,90.62
2023-03-05T10:23:36.911Z,90.71
2023-03-05T10:24:37.125Z,90.52
2023-03-05T10:25:37.339Z,91.19
2023-03-05T10:26:38.090Z,91
2023-03-05T10:27:38.177Z,91.28
2023-03-05T10:28:39.452Z,91.38
2023-03-05T10:29:39.716Z,91.38
2023-03-05T10:30:40.289Z,91.28
2023-03-05T10:31:40.752Z,91.19
2023-03-05T10:32:41.313Z,91
2023-03-05T10:33:41.548Z,90.9
2023-03-05T10:34:42.212Z,90.33
2023-03-05T10:35:42.769Z,90.43
2023-03-05T10:36:43.655Z,91
2023-03-05T10:37:43.646Z,90.24
2023-03-05T10:38:43.862Z,91.28
2023-03-05T10:39:44.362Z,90.81
2023-03-05T10:40:44.443Z,90.24
2023-03-05T10:41:45.389Z,91.09
2023-03-05T10:42:46.357Z,91.56
2023-03-05T10:43:47.062Z,92.23
2023-03-05T10:44:47.747Z,92.14
2023-03-05T10:45:48.447Z,91.75
2023-03-05T10:46:48.736Z,91.85
2023-03-05T10:47:49.236Z,90.81
2023-03-05T10:48:50.093Z,90.62
2023-03-05T10:49:51.029Z,90.57
2023-03-05T10:50:50.958Z,90.05
2023-03-05T10:51:51.321Z,89.95
2023-03-05T10:52:51.867Z,90.05
2023-03-05T10:53:52.532Z,89.86
2023-03-05T10:54:52.924Z,89.48
2023-03-05T10:55:54.141Z,89.39
2023-03-05T10:56:55.188Z,88.72
2023-03-05T10:57:55.881Z,89.95
2023-03-05T10:58:56.397Z,91.38
2023-03-05T10:59:56.355Z,90.43
2023-03-05T11:00:56.643Z,89.95
2023-03-05T11:01:57.211Z,90.52
2023-03-05T11:02:57.811Z,89.29
2023-03-05T11:03:58.517Z,89.95
2023-03-05T11:04:59.497Z,90.9
2023-03-05T11:06:00.037Z,91.56
2023-03-05T11:07:00.659Z,92.42
2023-03-05T11:08:01.151Z,91.38
2023-03-05T11:09:02.117Z,90.09
2023-03-05T11:10:02.502Z,89
2023-03-05T11:11:03.950Z,88.62
2023-03-05T11:12:03.098Z,89.29
2023-03-05T11:13:04.311Z,89.58
2023-03-05T11:14:04.994Z,89.95
2023-03-05T11:15:05.985Z,90.24
2023-03-05T11:16:06.699Z,90.33
2023-03-05T11:17:07.114Z,90.52
2023-03-05T11:18:07.047Z,90.9
2023-03-05T11:19:07.428Z,91.28
2023-03-05T11:20:08.303Z,91.66
2023-03-05T11:21:09.258Z,91.47
2023-03-05T11:22:09.482Z,90.81
2023-03-05T11:23:10.006Z,91
2023-03-05T11:24:10.722Z,91.28
2023-03-05T11:25:11.962Z,90.9
2023-03-05T11:26:12.626Z,91.19
2023-03-05T11:27:13.060Z,91.33
2023-03-05T11:28:17.072Z,91.52
2023-03-05T11:29:14.859Z,92.09
2023-03-05T11:30:15.385Z,92.18
2023-03-05T11:31:16.153Z,92.28
2023-03-05T11:32:16.458Z,92.47
2023-03-05T11:33:16.842Z,92.18
2023-03-05T11:34:17.795Z,93.51
2023-03-05T11:35:18.805Z,93.61
2023-03-05T11:36:18.607Z,94.08
2023-03-05T11:37:19.923Z,93.61
2023-03-05T11:38:20.158Z,93.61
2023-03-05T11:39:20.601Z,94.18
2023-03-05T11:40:21.258Z,93.89
2023-03-05T11:41:21.757Z,93.32
2023-03-05T11:42:22.442Z,92.94
2023-03-05T11:43:22.376Z,93.8
2023-03-05T11:44:22.969Z,93.7
2023-03-05T11:45:23.212Z,93.61
2023-03-05T11:46:23.916Z,93.51
2023-03-05T11:47:23.943Z,93.61
2023-03-05T11:48:25.171Z,93.99
2023-03-05T11:49:26.172Z,93.8
2023-03-05T11:50:26.702Z,93.32
2023-03-05T11:51:27.214Z,93.04
2023-03-05T11:52:27.552Z,92.94
2023-03-05T11:53:28.045Z,93.04
2023-03-05T11:54:28.305Z,92.66
2023-03-05T11:55:28.255Z,92.66
2023-03-05T11:56:28.915Z,92.38
2023-03-05T11:57:29.454Z,92.94
2023-03-05T11:58:29.677Z,93.13
2023-03-05T11:59:29.922Z,93.8
2023-03-05T12:00:29.913Z,93.61
2023-03-05T12:01:30.529Z,93.99
2023-03-05T12:02:30.798Z,94.18
2023-03-05T12:03:31.084Z,94.27
2023-03-05T12:04:31.212Z,93.89
2023-03-05T12:05:31.434Z,93.13
2023-03-05T12:06:31.638Z,93.23
2023-03-05T12:07:33.799Z,92.28
2023-03-05T12:08:32.721Z,92.38
2023-03-05T12:09:32.933Z,92.66
2023-03-05T12:10:33.764Z,93.51
2023-03-05T12:11:34.168Z,93.41
2023-03-05T12:12:34.838Z,92.94
2023-03-05T12:13:36.183Z,92.76
2023-03-05T12:14:36.751Z,92.76
2023-03-05T12:15:37.381Z,92.47
2023-03-05T12:16:38.413Z,91.8
2023-03-05T12:17:38.258Z,91.8
2023-03-05T12:18:38.635Z,91.8
2023-03-05T12:19:38.537Z,92.33
2023-03-05T12:20:39.823Z,92.94
2023-03-05T12:21:40.174Z,92.38
2023-03-05T12:22:41.190Z,92.23
2023-03-05T12:23:42.064Z,91.85
2023-03-05T12:24:41.763Z,91.85
2023-03-05T12:25:42.997Z,91.28
2023-03-05T12:26:43.667Z,91.75
2023-03-05T12:27:44.864Z,92.14
2023-03-05T12:28:44.838Z,93.56
2023-03-05T12:29:45.779Z,94.32
2023-03-05T12:30:46.553Z,94.03
2023-03-05T12:31:47.270Z,93.27
2023-03-05T12:32:48.528Z,91.56
2023-03-05T12:33:48.768Z,90.81
2023-03-05T12:34:49.727Z,89.86
2023-03-05T12:35:50.512Z,90.14
2023-03-05T12:36:50.944Z,89.86
2023-03-05T12:37:51.276Z,89.76
2023-03-05T12:38:52.272Z,89.39
2023-03-05T12:39:52.481Z,89.86
2023-03-05T12:40:52.517Z,89.76
2023-03-05T12:41:52.878Z,90.14
2023-03-05T12:42:54.156Z,90.71
2023-03-05T12:43:54.079Z,90.9
2023-03-05T12:44:55.571Z,90.52
2023-03-05T12:45:56.110Z,91.28
2023-03-05T12:46:56.093Z,91.47
2023-03-05T12:47:56.942Z,91.66
2023-03-05T12:48:57.598Z,91.85
2023-03-05T12:49:58.294Z,91.56
2023-03-05T12:50:58.921Z,91.94
2023-03-05T12:51:59.871Z,92.61
2023-03-05T12:53:01.130Z,92.33
2023-03-05T12:54:01.496Z,92.42
2023-03-05T12:55:02.464Z,91.75
2023-03-05T12:56:02.697Z,91.28
2023-03-05T12:57:02.913Z,90.62
2023-03-05T12:58:03.998Z,91.28
2023-03-05T12:59:04.571Z,90.52
2023-03-05T13:00:05.581Z,90.62
2023-03-05T13:01:05.929Z,91